createdAt,value
2023-05-05T00:01:03.062Z,61.57
2023-05-05T00:02:07.056Z,61.76
2023-05-05T00:03:31.721Z,61.34
2023-05-05T00:04:55.054Z,61.74
2023-05-05T00:05:58.207Z,61.66
2023-05-05T00:07:01.769Z,61.47
2023-05-05T00:08:04.330Z,61.52
2023-05-05T00:09:08.420Z,61.59
2023-05-05T00:10:11.207Z,61.45
2023-05-05T00:11:15.124Z,61.27
2023-05-05T00:12:17.642Z,61.16
2023-05-05T00:13:22.176Z,61.31
2023-05-05T00:14:24.901Z,61.17
2023-05-05T00:15:28.574Z,61.02
2023-05-05T00:16:31.074Z,61.23
2023-05-05T00:17:34.486Z,61.02
2023-05-05T00:18:38.529Z,61.22
2023-05-05T00:19:42.433Z,61.50
2023-05-05T00:20:46.886Z,61.43
2023-05-05T00:21:50.321Z,61.23
2023-05-05T00:22:52.743Z,61.52
2023-05-05T00:23:56.175Z,61.60
2023-05-05T00:24:59.039Z,61.68
2023-05-05T00:26:02.285Z,61.48
2023-05-05T00:27:04.822Z,61.44
2023-05-05T00:28:08.138Z,61.46
2023-05-05T00:29:10.597Z,61.20
2023-05-05T00:30:14.952Z,61.47
2023-05-05T00:31:17.343Z,60.87
2023-05-05T00:32:20.762Z,60.72
2023-05-05T00:33:23.626Z,60.57
2023-05-05T00:34:28.290Z,60.71
2023-05-05T00:35:31.110Z,60.56
2023-05-05T00:36:34.452Z,60.50
2023-05-05T00:37:37.580Z,60.52
2023-05-05T00:38:40.865Z,60.68
2023-05-05T00:39:44.790Z,60.63
2023-05-05T00:40:48.530Z,60.45
2023-05-05T00:41:51.062Z,60.40
2023-05-05T00:42:54.407Z,60.08
2023-05-05T00:43:56.731Z,60.24
2023-05-05T00:45:00.402Z,60.19
2023-05-05T00:46:09.835Z,60.22
2023-05-05T00:47:16.128Z,59.87
2023-05-05T00:48:19.789Z,60.20
2023-05-05T00:49:23.252Z,59.91
2023-05-05T00:50:30.319Z,59.99
2023-05-05T00:51:34.176Z,60.19
2023-05-05T00:52:36.889Z,60.20
2023-05-05T00:53:43.078Z,60.19
2023-05-05T00:54:45.918Z,60.44
2023-05-05T00:55:49.377Z,60.81
2023-05-05T00:56:52.106Z,60.73
2023-05-05T00:57:55.640Z,60.90
2023-05-05T00:58:59.235Z,60.80
2023-05-05T01:00:04.052Z,60.95
2023-05-05T01:01:07.903Z,61.18
2023-05-05T01:02:11.448Z,61.26
2023-05-05T01:03:15.529Z,61.52
2023-05-05T01:04:18.977Z,61.78
2023-05-05T01:05:23.821Z,62.04
2023-05-05T01:06:43.109Z,62.36
2023-05-05T01:07:58.816Z,62.29
2023-05-05T01:09:10.705Z,62.71
2023-05-05T01:10:23.434Z,62.99
2023-05-05T01:11:35.708Z,63.01
2023-05-05T01:12:46.351Z,63.12
2023-05-05T01:13:58.108Z,63.34
2023-05-05T01:15:07.557Z,63.60
2023-05-05T01:16:16.547Z,63.67
2023-05-05T01:17:22.117Z,63.70
2023-05-05T01:18:33.523Z,63.73
2023-05-05T01:19:54.140Z,63.83
2023-05-05T01:21:03.280Z,64.13
2023-05-05T01:22:12.324Z,64.02
2023-05-05T01:23:24.923Z,64.48
2023-05-05T01:24:44.326Z,64.29
2023-05-05T01:26:09.901Z,64.27
2023-05-05T01:27:30.607Z,64.38
2023-05-05T01:28:49.774Z,64.19
2023-05-05T01:30:05.627Z,64.17
2023-05-05T01:31:27.426Z,63.71
2023-05-05T01:32:36.191Z,63.92
2023-05-05T01:33:47.212Z,63.68
2023-05-05T01:34:56.451Z,63.53
2023-05-05T01:36:08.708Z,63.43
2023-05-05T01:37:18.603Z,63.46
2023-05-05T01:38:26.372Z,63.28
2023-05-05T01:39:33.682Z,63.24
2023-05-05T01:40:43.681Z,63.04
2023-05-05T01:41:49.242Z,62.80
2023-05-05T01:42:54.118Z,62.63
2023-05-05T01:44:00.429Z,62.43
2023-05-05T01:45:08.257Z,62.36
2023-05-05T01:46:12.297Z,62.67
2023-05-05T01:47:19.735Z,62.41
2023-05-05T01:48:24.961Z,62.43
2023-05-05T01:49:29.149Z,62.32
2023-05-05T01:50:32.729Z,62.18
2023-05-05T01:51:37.155Z,62.05
2023-05-05T01:52:41.633Z,61.85
2023-05-05T01:53:47.258Z,61.73
2023-05-05T01:54:51.089Z,61.82
2023-05-05T01:55:55.870Z,61.72
2023-05-05T01:56:59.778Z,61.66
2023-05-05T01:58:04.674Z,61.54
2023-05-05T01:59:07.932Z,61.60
2023-05-05T02:00:12.814Z,61.68
2023-05-05T02:01:25.718Z,61.83
2023-05-05T02:02:30.537Z,61.69
2023-05-05T02:04:44.797Z,61.65
2023-05-05T02:05:49.316Z,61.64
2023-05-05T02:06:54.600Z,61.92
2023-05-05T02:07:58.825Z,61.49
2023-05-05T02:09:03.738Z,61.69
2023-05-05T02:10:08.443Z,61.87
2023-05-05T02:11:14.224Z,61.81
2023-05-05T02:12:20.465Z,61.59
2023-05-05T02:13:25.713Z,61.69
2023-05-05T02:14:30.954Z,61.81
2023-05-05T02:15:35.477Z,61.61
2023-05-05T02:16:41.412Z,61.77
2023-05-05T02:17:45.375Z,61.54
2023-05-05T02:18:50.850Z,61.53
2023-05-05T02:19:54.953Z,61.11
2023-05-05T02:20:58.217Z,61.09
2023-05-05T02:22:00.917Z,60.73
2023-05-05T02:23:05.769Z,60.47
2023-05-05T02:24:08.728Z,60.34
2023-05-05T02:25:12.470Z,60.57
2023-05-05T02:26:17.390Z,60.42
2023-05-05T02:27:24.621Z,60.42
2023-05-05T02:28:39.321Z,60.44
2023-05-05T02:29:48.064Z,60.45
2023-05-05T02:30:57.646Z,60.31
2023-05-05T02:32:04.861Z,60.26
2023-05-05T02:33:10.367Z,60.22
2023-05-05T02:34:22.589Z,60.17
2023-05-05T02:35:31.998Z,60.24
2023-05-05T02:36:40.867Z,60.02
2023-05-05T02:37:48.575Z,60.05
2023-05-05T02:38:57.141Z,60.27
2023-05-05T02:40:02.536Z,60.20
2023-05-05T02:41:07.286Z,60.47
2023-05-05T02:42:13.619Z,60.43
2023-05-05T02:43:20.720Z,60.67
2023-05-05T02:44:24.950Z,60.50
2023-05-05T02:45:29.691Z,60.84
2023-05-05T02:46:32.778Z,60.97
2023-05-05T02:47:37.275Z,61.08
2023-05-05T02:48:40.417Z,61.32
2023-05-05T02:49:45.582Z,61.17
2023-05-05T02:50:47.928Z,61.37
2023-05-05T02:51:51.654Z,61.41
2023-05-05T02:52:54.047Z,61.41
2023-05-05T02:53:57.841Z,61.47
2023-05-05T02:55:01.578Z,61.41
2023-05-05T02:56:12.341Z,61.27
2023-05-05T02:57:18.930Z,61.35
2023-05-05T02:58:30.707Z,61.56
2023-05-05T02:59:40.148Z,61.55
2023-05-05T03:00:58.961Z,61.42
2023-05-05T03:02:23.555Z,61.49
2023-05-05T03:03:40.258Z,61.37
2023-05-05T03:04:54.323Z,61.09
2023-05-05T03:06:05.422Z,61.03
2023-05-05T03:07:14.411Z,60.71
2023-05-05T03:08:18.728Z,60.74
2023-05-05T03:09:27.622Z,60.41
2023-05-05T03:10:35.356Z,60.32
2023-05-05T03:11:45.718Z,60.14
2023-05-05T03:13:01.574Z,60.03
2023-05-05T03:14:10.420Z,59.44
2023-05-05T03:15:13.937Z,59.68
2023-05-05T03:16:21.294Z,59.71
2023-05-05T03:17:25.303Z,59.79
2023-05-05T03:18:30.863Z,59.70
2023-05-05T03:19:34.951Z,59.58
2023-05-05T03:20:41.760Z,59.47
2023-05-05T03:21:44.320Z,59.76
2023-05-05T03:22:48.748Z,59.54
2023-05-05T03:23:51.390Z,59.62
2023-05-05T03:24:54.898Z,59.49
2023-05-05T03:25:57.334Z,59.46
2023-05-05T03:27:00.621Z,59.72
2023-05-05T03:28:02.976Z,59.94
2023-05-05T03:29:06.856Z,59.80
2023-05-05T03:30:10.518Z,59.78
2023-05-05T03:31:14.884Z,59.98
2023-05-05T03:32:17.236Z,60.44
2023-05-05T03:33:21.033Z,60.02
2023-05-05T03:34:23.520Z,60.02
2023-05-05T03:35:27.065Z,60.03
2023-05-05T03:36:32.085Z,60.46
2023-05-05T03:37:34.449Z,60.51
2023-05-05T03:38:37.822Z,60.45
2023-05-05T03:39:40.218Z,60.53
2023-05-05T03:40:44.849Z,60.36
2023-05-05T03:41:47.435Z,60.77
2023-05-05T03:42:50.917Z,60.82
2023-05-05T03:43:53.514Z,60.88
2023-05-05T03:44:57.322Z,60.92
2023-05-05T03:45:59.675Z,61.11
2023-05-05T03:47:03.011Z,60.99
2023-05-05T03:48:06.180Z,61.07
2023-05-05T03:49:09.909Z,61.33
2023-05-05T03:50:12.415Z,61.43
2023-05-05T03:51:15.786Z,61.61
2023-05-05T03:52:19.723Z,61.57
2023-05-05T03:53:23.211Z,61.39
2023-05-05T03:54:25.742Z,61.33
2023-05-05T03:55:29.482Z,61.43
2023-05-05T03:56:31.932Z,61.45
2023-05-05T03:57:35.489Z,61.57
2023-05-05T03:58:37.852Z,61.55
2023-05-05T03:59:41.136Z,61.58
2023-05-05T04:00:43.482Z,61.52
2023-05-05T04:01:49.119Z,61.51
2023-05-05T04:02:51.544Z,61.54
2023-05-05T04:03:55.434Z,61.50
2023-05-05T04:04:58.492Z,61.84
2023-05-05T04:06:01.868Z,61.92
2023-05-05T04:07:04.700Z,61.75
2023-05-05T04:08:09.334Z,62.06
2023-05-05T04:09:12.628Z,62.24
2023-05-05T04:10:15.974Z,62.25
2023-05-05T04:11:18.378Z,62.22
2023-05-05T04:12:21.668Z,62.23
2023-05-05T04:13:24.248Z,62.15
2023-05-05T04:14:27.662Z,62.20
2023-05-05T04:15:30.287Z,62.12
2023-05-05T04:16:33.641Z,62.20
2023-05-05T04:17:36.182Z,62.27
2023-05-05T04:18:39.941Z,62.47
2023-05-05T04:19:42.684Z,62.60
2023-05-05T04:20:46.871Z,62.86
2023-05-05T04:21:49.380Z,63.03
2023-05-05T04:22:53.015Z,63.04
2023-05-05T04:23:57.778Z,63.19
2023-05-05T04:25:01.386Z,63.15
2023-05-05T04:26:03.760Z,63.43
2023-05-05T04:27:07.162Z,63.43
2023-05-05T04:28:09.483Z,63.50
2023-05-05T04:29:13.346Z,63.51
2023-05-05T04:30:15.802Z,63.66
2023-05-05T04:31:19.289Z,63.60
2023-05-05T04:32:21.898Z,63.36
2023-05-05T04:33:25.955Z,63.24
2023-05-05T04:34:28.315Z,63.22
2023-05-05T04:35:31.751Z,63.03
2023-05-05T04:36:34.641Z,63.07
2023-05-05T04:37:37.957Z,63.01
2023-05-05T04:38:40.344Z,62.83
2023-05-05T04:39:45.064Z,62.74
2023-05-05T04:40:47.766Z,63.02
2023-05-05T04:41:51.127Z,62.49
2023-05-05T04:42:53.966Z,62.73
2023-05-05T04:43:57.348Z,63.09
2023-05-05T04:44:59.759Z,63.06
2023-05-05T04:46:03.395Z,63.05
2023-05-05T04:47:05.909Z,63.11
2023-05-05T04:48:09.301Z,62.80
2023-05-05T04:49:11.744Z,63.20
2023-05-05T04:50:15.250Z,62.99
2023-05-05T04:51:18.073Z,63.08
2023-05-05T04:52:21.432Z,62.75
2023-05-05T04:53:23.745Z,62.86
2023-05-05T04:54:27.181Z,62.68
2023-05-05T04:55:30.852Z,62.54
2023-05-05T04:56:34.253Z,62.19
2023-05-05T04:57:36.666Z,61.70
2023-05-05T04:58:40.012Z,61.25
2023-05-05T04:59:42.806Z,60.49
2023-05-05T05:00:46.390Z,60.08
2023-05-05T05:01:50.390Z,59.33
2023-05-05T05:02:53.827Z,58.65
2023-05-05T05:03:56.557Z,58.01
2023-05-05T05:05:00.181Z,57.69
2023-05-05T05:06:02.626Z,56.72
2023-05-05T05:07:05.984Z,56.13
2023-05-05T05:08:08.374Z,55.81
2023-05-05T05:09:11.866Z,55.24
2023-05-05T05:10:14.847Z,54.85
2023-05-05T05:11:20.073Z,53.94
2023-05-05T05:12:22.526Z,52.88
2023-05-05T05:13:25.967Z,52.42
2023-05-05T05:14:28.826Z,51.80
2023-05-05T05:15:32.152Z,51.59
2023-05-05T05:16:34.800Z,51.56
2023-05-05T05:17:38.242Z,50.81
2023-05-05T05:18:40.986Z,50.77
2023-05-05T05:19:44.315Z,50.38
2023-05-05T05:20:46.694Z,49.60
2023-05-05T05:21:50.364Z,49.03
2023-05-05T05:22:53.156Z,48.49
2023-05-05T05:23:56.428Z,48.12
2023-05-05T05:24:58.926Z,47.99
2023-05-05T05:26:02.928Z,47.42
2023-05-05T05:27:10.173Z,46.86
2023-05-05T05:28:13.770Z,46.27
2023-05-05T05:29:16.207Z,46.12
2023-05-05T05:30:19.672Z,45.58
2023-05-05T05:31:22.106Z,45.48
2023-05-05T05:32:25.655Z,45.23
2023-05-05T05:33:28.577Z,45.40
2023-05-05T05:34:31.968Z,44.49
2023-05-05T05:35:34.369Z,44.38
2023-05-05T05:36:37.756Z,44.12
2023-05-05T05:37:40.099Z,44.02
2023-05-05T05:38:43.498Z,43.22
2023-05-05T05:39:51.794Z,43.21
2023-05-05T05:40:56.886Z,42.72
2023-05-05T05:42:00.309Z,42.54
2023-05-05T05:43:04.301Z,42.29
2023-05-05T05:44:07.857Z,41.79
2023-05-05T05:45:10.889Z,41.85
2023-05-05T05:46:14.373Z,41.65
2023-05-05T05:47:16.917Z,41.41
2023-05-05T05:48:21.496Z,41.34
2023-05-05T05:49:24.031Z,41.42
2023-05-05T05:50:28.777Z,41.74
2023-05-05T05:51:31.622Z,41.30
2023-05-05T05:52:36.306Z,41.76
2023-05-05T05:53:38.780Z,40.98
2023-05-05T05:54:42.561Z,40.75
2023-05-05T05:55:51.776Z,40.90
2023-05-05T05:56:55.079Z,40.86
2023-05-05T05:57:57.572Z,40.70
2023-05-05T05:59:04.703Z,40.22
2023-05-05T06:00:08.491Z,39.84
2023-05-05T06:01:12.549Z,39.97
2023-05-05T06:02:14.939Z,39.86
2023-05-05T06:03:18.556Z,39.23
2023-05-05T06:04:21.192Z,39.06
2023-05-05T06:05:24.537Z,39.31
2023-05-05T06:06:27.964Z,39.22
2023-05-05T06:07:31.265Z,38.77
2023-05-05T06:08:33.754Z,38.98
2023-05-05T06:09:37.480Z,38.40
2023-05-05T06:10:40.135Z,38.71
2023-05-05T06:11:43.492Z,38.38
2023-05-05T06:12:46.363Z,38.11
2023-05-05T06:13:49.994Z,37.42
2023-05-05T06:14:54.004Z,38.09
2023-05-05T06:15:57.356Z,37.42
2023-05-05T06:16:59.985Z,37.49
2023-05-05T06:18:03.267Z,36.88
2023-05-05T06:19:09.566Z,36.84
2023-05-05T06:20:14.188Z,37.00
2023-05-05T06:21:17.616Z,37.57
2023-05-05T06:22:20.086Z,37.69
2023-05-05T06:23:23.522Z,37.56
2023-05-05T06:24:25.958Z,38.03
2023-05-05T06:25:29.348Z,38.06
2023-05-05T06:26:32.653Z,38.29
2023-05-05T06:27:35.347Z,38.22
2023-05-05T06:28:39.483Z,38.38
2023-05-05T06:29:41.960Z,38.20
2023-05-05T06:30:46.608Z,37.52
2023-05-05T06:31:49.966Z,37.51
2023-05-05T06:32:54.371Z,37.11
2023-05-05T06:33:57.866Z,36.91
2023-05-05T06:35:00.209Z,36.94
2023-05-05T06:36:03.545Z,36.67
2023-05-05T06:37:06.688Z,36.27
2023-05-05T06:38:10.878Z,35.67
2023-05-05T06:39:16.018Z,35.36
2023-05-05T06:40:19.237Z,35.34
2023-05-05T06:41:22.642Z,34.81
2023-05-05T06:42:25.120Z,34.90
2023-05-05T06:43:30.115Z,34.88
2023-05-05T06:44:35.007Z,34.57
2023-05-05T06:45:37.508Z,34.28
2023-05-05T06:46:43.823Z,34.33
2023-05-05T06:47:46.392Z,34.51
2023-05-05T06:48:50.306Z,33.63
2023-05-05T06:49:53.066Z,33.73
2023-05-05T06:50:57.893Z,32.97
2023-05-05T06:52:00.312Z,32.94
2023-05-05T06:53:03.965Z,32.56
2023-05-05T06:54:06.732Z,32.33
2023-05-05T06:55:10.939Z,32.56
2023-05-05T06:56:13.343Z,32.29
2023-05-05T06:57:16.695Z,32.05
2023-05-05T06:58:19.729Z,31.86
2023-05-05T06:59:23.003Z,30.79
2023-05-05T07:00:25.636Z,31.70
2023-05-05T07:01:34.614Z,31.21
2023-05-05T07:02:38.614Z,31.15
2023-05-05T07:03:42.287Z,31.49
2023-05-05T07:04:44.916Z,31.13
2023-05-05T07:05:48.244Z,30.21
2023-05-05T07:06:50.810Z,29.99
2023-05-05T07:07:54.341Z,30.01
2023-05-05T07:08:58.054Z,30.06
2023-05-05T07:10:00.509Z,29.83
2023-05-05T07:11:03.945Z,30.07
2023-05-05T07:12:06.623Z,29.28
2023-05-05T07:13:10.019Z,29.50
2023-05-05T07:14:12.646Z,29.30
2023-05-05T07:15:26.904Z,29.08
2023-05-05T07:16:34.903Z,28.98
2023-05-05T07:17:38.731Z,29.09
2023-05-05T07:18:42.291Z,29.13
2023-05-05T07:19:45.202Z,28.80
2023-05-05T07:20:48.803Z,28.62
2023-05-05T07:21:52.113Z,28.24
2023-05-05T07:22:55.476Z,27.91
2023-05-05T07:23:57.897Z,28.13
2023-05-05T07:25:01.269Z,27.52
2023-05-05T07:26:04.799Z,27.50
2023-05-05T07:27:07.869Z,27.67
2023-05-05T07:28:11.422Z,27.08
2023-05-05T07:29:14.057Z,27.28
2023-05-05T07:30:18.993Z,26.94
2023-05-05T07:31:22.199Z,27.35
2023-05-05T07:32:26.056Z,26.83
2023-05-05T07:33:30.867Z,26.71
2023-05-05T07:34:35.128Z,26.62
2023-05-05T07:35:39.324Z,26.62
2023-05-05T07:36:43.808Z,26.05
2023-05-05T07:37:46.363Z,26.17
2023-05-05T07:38:50.152Z,26.19
2023-05-05T07:39:52.665Z,25.75
2023-05-05T07:40:56.011Z,25.49
2023-05-05T07:41:59.552Z,25.10
2023-05-05T07:43:01.980Z,25.49
2023-05-05T07:44:05.634Z,25.17
2023-05-05T07:45:09.558Z,25.52
2023-05-05T07:46:13.914Z,25.17
2023-05-05T07:47:17.349Z,24.81
2023-05-05T07:48:19.751Z,25.08
2023-05-05T07:49:24.875Z,25.17
2023-05-05T07:50:27.456Z,25.20
2023-05-05T07:51:33.276Z,25.01
2023-05-05T07:52:48.352Z,24.97
2023-05-05T07:53:57.188Z,24.80
2023-05-05T07:54:59.637Z,24.79
2023-05-05T07:56:02.947Z,24.69
2023-05-05T07:57:06.296Z,23.94
2023-05-05T07:58:11.251Z,24.47
2023-05-05T07:59:14.688Z,23.83
2023-05-05T08:00:19.603Z,23.94
2023-05-05T08:01:24.848Z,24.12
2023-05-05T08:02:27.256Z,23.55
2023-05-05T08:03:31.326Z,24.23
2023-05-05T08:04:35.409Z,23.57
2023-05-05T08:05:39.446Z,24.19
2023-05-05T08:06:42.059Z,24.28
2023-05-05T08:07:45.763Z,24.08
2023-05-05T08:08:49.344Z,24.04
2023-05-05T08:09:52.766Z,24.21
2023-05-05T08:10:55.177Z,23.86
2023-05-05T08:11:58.586Z,24.10
2023-05-05T08:13:01.955Z,23.41
2023-05-05T08:14:04.406Z,23.31
2023-05-05T08:15:10.465Z,23.00
2023-05-05T08:16:14.404Z,23.19
2023-05-05T08:17:20.177Z,23.23
2023-05-05T08:18:24.568Z,22.94
2023-05-05T08:19:29.486Z,23.16
2023-05-05T08:20:34.541Z,23.87
2023-05-05T08:21:37.120Z,23.54
2023-05-05T08:22:40.448Z,23.66
2023-05-05T08:23:43.792Z,23.42
2023-05-05T08:24:46.444Z,23.90
2023-05-05T08:25:49.906Z,23.94
2023-05-05T08:26:53.376Z,23.70
2023-05-05T08:27:56.932Z,23.33
2023-05-05T08:29:00.921Z,23.40
2023-05-05T08:30:04.256Z,23.06
2023-05-05T08:31:08.112Z,23.08
2023-05-05T08:32:10.820Z,23.04
2023-05-05T08:33:14.405Z,23.20
2023-05-05T08:34:17.866Z,22.79
2023-05-05T08:35:20.518Z,23.44
2023-05-05T08:36:25.274Z,23.24
2023-05-05T08:37:28.148Z,23.27
2023-05-05T08:38:31.534Z,22.68
2023-05-05T08:39:34.961Z,23.33
2023-05-05T08:40:38.551Z,22.51
2023-05-05T08:41:41.995Z,22.36
2023-05-05T08:42:45.783Z,22.46
2023-05-05T08:43:50.948Z,23.34
2023-05-05T08:44:53.865Z,22.98
2023-05-05T08:45:58.155Z,23.37
2023-05-05T08:47:02.325Z,22.81
2023-05-05T08:48:06.927Z,22.76
2023-05-05T08:49:16.933Z,22.66
2023-05-05T08:50:22.818Z,23.07
2023-05-05T08:51:32.373Z,22.59
2023-05-05T08:52:40.450Z,22.54
2023-05-05T08:53:53.233Z,22.20
2023-05-05T08:55:00.433Z,22.59
2023-05-05T08:56:05.847Z,22.49
2023-05-05T08:57:11.727Z,22.59
2023-05-05T08:58:15.801Z,22.71
2023-05-05T08:59:24.247Z,22.60
2023-05-05T09:00:29.021Z,22.41
2023-05-05T09:01:35.325Z,22.66
2023-05-05T09:02:38.687Z,23.02
2023-05-05T09:03:42.342Z,22.63
2023-05-05T09:04:45.948Z,22.49
2023-05-05T09:05:49.866Z,22.91
2023-05-05T09:06:54.580Z,23.28
2023-05-05T09:07:57.210Z,22.87
2023-05-05T09:09:02.855Z,22.93
2023-05-05T09:10:05.965Z,23.57
2023-05-05T09:11:09.287Z,23.34
2023-05-05T09:12:12.296Z,23.19
2023-05-05T09:13:15.917Z,23.28
2023-05-05T09:14:18.510Z,23.52
2023-05-05T09:15:21.908Z,23.70
2023-05-05T09:16:25.170Z,23.75
2023-05-05T09:17:28.223Z,23.65
2023-05-05T09:18:31.669Z,23.65
2023-05-05T09:19:34.192Z,23.74
2023-05-05T09:20:38.899Z,23.91
2023-05-05T09:21:49.146Z,24.02
2023-05-05T09:22:53.816Z,24.01
2023-05-05T09:24:09.079Z,24.16
2023-05-05T09:25:14.304Z,24.16
2023-05-05T09:26:17.597Z,24.45
2023-05-05T09:27:22.837Z,24.21
2023-05-05T09:28:27.431Z,24.30
2023-05-05T09:29:30.010Z,24.54
2023-05-05T09:30:33.532Z,24.83
2023-05-05T09:31:37.193Z,24.81
2023-05-05T09:32:48.404Z,24.91
2023-05-05T09:33:51.230Z,24.94
2023-05-05T09:35:01.616Z,25.15
2023-05-05T09:36:05.207Z,25.62
2023-05-05T09:37:09.021Z,25.45
2023-05-05T09:38:13.317Z,25.91
2023-05-05T09:39:19.082Z,25.99
2023-05-05T09:40:22.324Z,26.15
2023-05-05T09:41:39.125Z,26.60
2023-05-05T09:42:43.100Z,26.33
2023-05-05T09:43:52.108Z,26.40
2023-05-05T09:44:57.915Z,26.55
2023-05-05T09:46:08.820Z,27.06
2023-05-05T09:47:21.969Z,27.50
2023-05-05T09:48:33.461Z,27.63
2023-05-05T09:49:37.524Z,27.69
2023-05-05T09:50:44.996Z,27.67
2023-05-05T09:51:48.336Z,28.02
2023-05-05T09:52:58.377Z,27.46
2023-05-05T09:54:03.061Z,28.63
2023-05-05T09:55:05.970Z,28.54
2023-05-05T09:56:10.498Z,28.74
2023-05-05T09:57:27.517Z,29.11
2023-05-05T09:58:32.083Z,29.14
2023-05-05T09:59:35.828Z,29.66
2023-05-05T10:00:39.156Z,29.38
2023-05-05T10:01:44.021Z,30.23
2023-05-05T10:02:47.172Z,29.70
2023-05-05T10:03:53.236Z,29.87
2023-05-05T10:05:07.007Z,30.79
2023-05-05T10:06:11.454Z,30.95
2023-05-05T10:07:25.221Z,30.73
2023-05-05T10:08:30.528Z,31.75
2023-05-05T10:09:35.324Z,31.66
2023-05-05T10:10:44.907Z,32.03
2023-05-05T10:11:48.694Z,32.47
2023-05-05T10:12:51.490Z,32.78
2023-05-05T10:13:55.153Z,32.89
2023-05-05T10:14:58.805Z,32.93
2023-05-05T10:16:04.491Z,33.06
2023-05-05T10:17:10.463Z,33.33
2023-05-05T10:18:15.888Z,33.71
2023-05-05T10:19:21.895Z,33.21
2023-05-05T10:20:26.177Z,33.86
2023-05-05T10:21:34.900Z,34.28
2023-05-05T10:22:40.661Z,34.39
2023-05-05T10:23:50.394Z,34.73
2023-05-05T10:25:03.686Z,34.84
2023-05-05T10:26:09.443Z,35.03
2023-05-05T10:27:15.614Z,35.05
2023-05-05T10:28:32.855Z,35.15
2023-05-05T10:29:42.437Z,35.12
2023-05-05T10:30:50.638Z,35.67
2023-05-05T10:32:00.297Z,35.50
2023-05-05T10:33:30.403Z,35.72
2023-05-05T10:34:42.016Z,35.85
2023-05-05T10:35:49.508Z,36.44
2023-05-05T10:36:53.690Z,36.23
2023-05-05T10:37:59.421Z,36.22
2023-05-05T10:39:06.831Z,36.62
2023-05-05T10:40:12.989Z,37.01
2023-05-05T10:41:17.788Z,36.93
2023-05-05T10:42:21.171Z,36.98
2023-05-05T10:43:25.692Z,36.65
2023-05-05T10:44:31.933Z,37.02
2023-05-05T10:45:35.893Z,36.83
2023-05-05T10:46:40.732Z,37.31
2023-05-05T10:47:45.441Z,37.24
2023-05-05T10:48:56.735Z,37.54
2023-05-05T10:50:08.770Z,37.25
2023-05-05T10:51:40.141Z,37.81
2023-05-05T10:52:53.753Z,38.01
2023-05-05T10:54:01.064Z,37.78
2023-05-05T10:55:14.279Z,37.89
2023-05-05T10:56:25.561Z,37.74
2023-05-05T10:57:30.525Z,38.03
2023-05-05T10:58:43.640Z,37.74
2023-05-05T10:59:50.913Z,38.23
2023-05-05T11:00:53.673Z,38.03
2023-05-05T11:01:58.712Z,37.73
2023-05-05T11:03:22.648Z,38.39
2023-05-05T11:04:26.083Z,37.96
2023-05-05T11:05:28.540Z,38.35
2023-05-05T11:06:32.946Z,38.16
2023-05-05T11:07:35.711Z,38.29
2023-05-05T11:08:40.753Z,37.62
2023-05-05T11:09:55.745Z,37.76
2023-05-05T11:11:01.188Z,38.03
2023-05-05T11:12:06.223Z,37.90
2023-05-05T11:13:21.336Z,38.20
2023-05-05T11:14:24.960Z,38.37
2023-05-05T11:15:37.940Z,38.20
2023-05-05T11:16:48.272Z,38.31
2023-05-05T11:17:51.311Z,37.98
2023-05-05T11:18:54.737Z,38.35
2023-05-05T11:19:57.123Z,38.10
2023-05-05T11:21:19.655Z,38.30
2023-05-05T11:22:22.122Z,38.56
2023-05-05T11:23:25.618Z,38.87
2023-05-05T11:24:30.466Z,38.31
2023-05-05T11:25:48.007Z,38.41
2023-05-05T11:26:53.208Z,38.80
2023-05-05T11:28:08.865Z,38.38
2023-05-05T11:29:12.331Z,38.29
2023-05-05T11:30:15.289Z,38.41
2023-05-05T11:31:20.377Z,38.57
2023-05-05T11:32:25.143Z,38.49
2023-05-05T11:33:29.573Z,38.32
2023-05-05T11:34:32.912Z,38.81
2023-05-05T11:36:01.853Z,38.84
2023-05-05T11:37:09.279Z,38.79
2023-05-05T11:38:15.080Z,38.27
2023-05-05T11:39:25.247Z,38.88
2023-05-05T11:40:36.832Z,38.63
2023-05-05T11:42:06.551Z,38.89
2023-05-05T11:43:13.064Z,38.94
2023-05-05T11:44:17.746Z,38.81
2023-05-05T11:45:22.823Z,38.50
2023-05-05T11:46:25.276Z,38.38
2023-05-05T11:47:32.812Z,38.02
2023-05-05T11:48:45.177Z,37.90
2023-05-05T11:49:48.959Z,37.79
2023-05-05T11:50:52.724Z,37.76
2023-05-05T11:51:58.510Z,37.93
2023-05-05T11:53:02.770Z,37.85
2023-05-05T11:54:05.586Z,37.94
2023-05-05T11:55:09.709Z,37.94
2023-05-05T11:56:19.040Z,37.95
2023-05-05T11:57:29.773Z,38.24
2023-05-05T11:58:33.151Z,37.69
2023-05-05T11:59:37.668Z,38.29
2023-05-05T12:00:41.047Z,38.58
2023-05-05T12:01:44.390Z,38.34
2023-05-05T12:02:48.162Z,38.58
2023-05-05T12:03:51.916Z,38.32
2023-05-05T12:04:55.417Z,38.44
2023-05-05T12:05:58.865Z,38.30
2023-05-05T12:07:01.276Z,37.99
2023-05-05T12:08:04.770Z,37.75
2023-05-05T12:09:08.925Z,37.66
2023-05-05T12:10:12.620Z,38.00
2023-05-05T12:11:15.276Z,37.92
2023-05-05T12:12:20.312Z,38.15
2023-05-05T12:13:25.255Z,37.87
2023-05-05T12:14:27.757Z,37.92
2023-05-05T12:15:32.491Z,37.82
2023-05-05T12:16:35.060Z,38.54
2023-05-05T12:17:41.113Z,37.77
2023-05-05T12:18:43.671Z,38.22
2023-05-05T12:19:49.466Z,38.50
2023-05-05T12:20:53.081Z,38.41
2023-05-05T12:21:55.457Z,38.63
2023-05-05T12:23:02.036Z,38.58
2023-05-05T12:24:05.109Z,38.77
2023-05-05T12:25:10.208Z,38.58
2023-05-05T12:26:25.654Z,38.69
2023-05-05T12:27:29.844Z,39.10
2023-05-05T12:28:46.904Z,39.17
2023-05-05T12:29:50.749Z,38.96
2023-05-05T12:31:00.316Z,39.14
2023-05-05T12:32:03.735Z,39.11
2023-05-05T12:33:08.400Z,39.37
2023-05-05T12:34:12.384Z,39.05
2023-05-05T12:35:17.154Z,39.69
2023-05-05T12:36:19.685Z,39.43
2023-05-05T12:37:24.478Z,39.67
2023-05-05T12:38:26.917Z,39.46
2023-05-05T12:39:36.430Z,39.85
2023-05-05T12:40:47.681Z,39.52
2023-05-05T12:41:51.466Z,39.94
2023-05-05T12:42:53.901Z,39.68
2023-05-05T12:43:59.484Z,39.80
2023-05-05T12:45:03.132Z,39.54
2023-05-05T12:46:07.997Z,39.28
2023-05-05T12:47:12.750Z,39.91
2023-05-05T12:48:24.667Z,39.59
2023-05-05T12:49:28.197Z,40.01
2023-05-05T12:50:32.839Z,39.47
2023-05-05T12:51:36.365Z,39.63
2023-05-05T12:52:44.236Z,39.96
2023-05-05T12:53:49.254Z,39.78
2023-05-05T12:54:54.969Z,40.06
2023-05-05T12:55:59.805Z,39.78
2023-05-05T12:57:12.848Z,39.29
2023-05-05T12:58:15.258Z,39.68
2023-05-05T12:59:31.926Z,39.65
2023-05-05T13:00:34.631Z,39.43
2023-05-05T13:01:49.197Z,39.96
2023-05-05T13:02:53.265Z,40.23
2023-05-05T13:04:06.566Z,40.22
2023-05-05T13:05:10.704Z,39.89
2023-05-05T13:06:20.781Z,40.07
2023-05-05T13:07:24.104Z,40.25
2023-05-05T13:08:46.119Z,40.20
2023-05-05T13:09:51.429Z,40.81
2023-05-05T13:10:57.702Z,40.44
2023-05-05T13:12:03.090Z,40.74
2023-05-05T13:13:06.052Z,40.50
2023-05-05T13:14:09.752Z,40.37
2023-05-05T13:15:14.692Z,41.10
2023-05-05T13:16:18.207Z,40.89
2023-05-05T13:17:21.805Z,40.37
2023-05-05T13:18:24.284Z,40.99
2023-05-05T13:19:27.844Z,40.67
2023-05-05T13:20:31.213Z,40.99
2023-05-05T13:21:33.740Z,40.66
2023-05-05T13:22:37.451Z,40.74
2023-05-05T13:23:43.269Z,40.76
2023-05-05T13:24:52.366Z,41.28
2023-05-05T13:25:57.246Z,40.46
2023-05-05T13:27:00.883Z,40.83
2023-05-05T13:28:04.686Z,40.48
2023-05-05T13:29:07.071Z,40.29
2023-05-05T13:30:11.469Z,40.60
2023-05-05T13:31:15.263Z,40.73
2023-05-05T13:32:18.650Z,40.87
2023-05-05T13:33:21.103Z,40.58
2023-05-05T13:34:24.669Z,40.27
2023-05-05T13:35:28.580Z,40.26
2023-05-05T13:36:31.377Z,40.22
2023-05-05T13:37:34.859Z,40.23
2023-05-05T13:38:37.480Z,40.21
2023-05-05T13:39:41.139Z,40.27
2023-05-05T13:40:43.581Z,40.84
2023-05-05T13:41:47.000Z,40.50
2023-05-05T13:42:49.746Z,40.46
2023-05-05T13:43:53.252Z,40.73
2023-05-05T13:44:56.663Z,41.00
2023-05-05T13:46:12.270Z,40.95
2023-05-05T13:47:21.294Z,40.63
2023-05-05T13:48:23.787Z,40.54
2023-05-05T13:49:27.218Z,40.83
2023-05-05T13:50:29.688Z,40.49
2023-05-05T13:51:34.915Z,40.93
2023-05-05T13:52:38.534Z,40.41
2023-05-05T13:53:43.852Z,40.55
2023-05-05T13:54:47.271Z,40.67
2023-05-05T13:55:49.801Z,40.83
2023-05-05T13:56:53.678Z,41.08
2023-05-05T13:57:56.443Z,40.80
2023-05-05T13:58:59.818Z,40.81
2023-05-05T14:00:03.130Z,40.64
2023-05-05T14:01:09.738Z,41.19
2023-05-05T14:02:13.131Z,41.04
2023-05-05T14:03:17.110Z,40.74